sensor_id;sensor_type;location;lat;lon;timestamp;temperature;humidity
20091;DHT22;10205;49.678;6.560;2022-09-09T00:02:19;21.70;60.50
20091;DHT22;10205;49.678;6.560;2022-09-09T00:04:56;21.70;61.70
20091;DHT22;10205;49.678;6.560;2022-09-09T00:07:37;21.70;60.70
20091;DHT22;10205;49.678;6.560;2022-09-09T00:10:22;21.60;61.10
20091;DHT22;10205;49.678;6.560;2022-09-09T00:12:59;21.60;60.70
20091;DHT22;10205;49.678;6.560;2022-09-09T00:15:38;21.60;60.50
20091;DHT22;10205;49.678;6.560;2022-09-09T00:18:17;21.60;60.80
20091;DHT22;10205;49.678;6.560;2022-09-09T00:20:57;21.60;60.70
20091;DHT22;10205;49.678;6.560;2022-09-09T00:23:30;21.50;60.90
20091;DHT22;10205;49.678;6.560;2022-09-09T00:26:04;21.50;60.80
20091;DHT22;10205;49.678;6.560;2022-09-09T00:28:41;21.50;61.10
20091;DHT22;10205;49.678;6.560;2022-09-09T00:31:15;21.50;60.90
20091;DHT22;10205;49.678;6.560;2022-09-09T00:33:48;21.40;61.10
20091;DHT22;10205;49.678;6.560;2022-09-09T00:36:18;21.40;61.00
20091;DHT22;10205;49.678;6.560;2022-09-09T00:38:53;21.40;61.20
20091;DHT22;10205;49.678;6.560;2022-09-09T00:41:33;21.40;60.90
20091;DHT22;10205;49.678;6.560;2022-09-09T00:44:24;21.40;61.30
20091;DHT22;10205;49.678;6.560;2022-09-09T00:47:04;21.30;61.30
20091;DHT22;10205;49.678;6.560;2022-09-09T00:49:53;21.30;61.30
20091;DHT22;10205;49.678;6.560;2022-09-09T00:52:35;21.30;61.50
20091;DHT22;10205;49.678;6.560;2022-09-09T00:55:11;21.30;61.40
20091;DHT22;10205;49.678;6.560;2022-09-09T00:57:46;21.30;61.30
20091;DHT22;10205;49.678;6.560;2022-09-09T01:00:21;21.20;61.20
20091;DHT22;10205;49.678;6.560;2022-09-09T01:03:02;21.20;61.30
20091;DHT22;10205;49.678;6.560;2022-09-09T01:05:42;21.20;61.40
20091;DHT22;10205;49.678;6.560;2022-09-09T01:11:20;21.10;61.40
20091;DHT22;10205;49.678;6.560;2022-09-09T01:13:59;21.10;61.30
20091;DHT22;10205;49.678;6.560;2022-09-09T01:16:31;21.10;61.30
20091;DHT22;10205;49.678;6.560;2022-09-09T01:19:00;21.10;61.30
20091;DHT22;10205;49.678;6.560;2022-09-09T01:21:37;21.00;61.50
20091;DHT22;10205;49.678;6.560;2022-09-09T01:24:22;21.00;61.80
20091;DHT22;10205;49.678;6.560;2022-09-09T01:26:57;21.00;61.90
20091;DHT22;10205;49.678;6.560;2022-09-09T01:29:27;21.00;62.00
20091;DHT22;10205;49.678;6.560;2022-09-09T01:31:57;21.00;61.80
20091;DHT22;10205;49.678;6.560;2022-09-09T01:34:28;21.00;61.70
20091;DHT22;10205;49.678;6.560;2022-09-09T01:37:02;20.90;61.80
20091;DHT22;10205;49.678;6.560;2022-09-09T01:39:33;20.90;61.90
20091;DHT22;10205;49.678;6.560;2022-09-09T01:42:04;20.90;61.90
20091;DHT22;10205;49.678;6.560;2022-09-09T01:44:32;20.90;62.30
20091;DHT22;10205;49.678;6.560;2022-09-09T01:47:02;20.90;61.90
20091;DHT22;10205;49.678;6.560;2022-09-09T01:49:32;20.90;62.10
20091;DHT22;10205;49.678;6.560;2022-09-09T01:51:59;20.90;62.00
20091;DHT22;10205;49.678;6.560;2022-09-09T01:54:29;20.90;62.10
20091;DHT22;10205;49.678;6.560;2022-09-09T01:57:08;20.90;62.30
20091;DHT22;10205;49.678;6.560;2022-09-09T01:59:51;20.80;62.30
20091;DHT22;10205;49.678;6.560;2022-09-09T02:02:31;20.80;62.30
20091;DHT22;10205;49.678;6.560;2022-09-09T02:05:07;20.90;62.30
20091;DHT22;10205;49.678;6.560;2022-09-09T02:07:47;20.80;63.20
20091;DHT22;10205;49.678;6.560;2022-09-09T02:10:19;20.80;62.10
20091;DHT22;10205;49.678;6.560;2022-09-09T02:12:52;20.80;62.30
20091;DHT22;10205;49.678;6.560;2022-09-09T02:15:29;20.80;62.20
20091;DHT22;10205;49.678;6.560;2022-09-09T02:18:03;20.80;62.50
20091;DHT22;10205;49.678;6.560;2022-09-09T02:20:34;20.80;62.50
20091;DHT22;10205;49.678;6.560;2022-09-09T02:23:05;20.80;62.50
20091;DHT22;10205;49.678;6.560;2022-09-09T02:25:37;20.80;62.40
20091;DHT22;10205;49.678;6.560;2022-09-09T02:28:09;20.80;62.60
20091;DHT22;10205;49.678;6.560;2022-09-09T02:30:42;20.80;62.60
20091;DHT22;10205;49.678;6.560;2022-09-09T02:33:13;20.70;62.50
20091;DHT22;10205;49.678;6.560;2022-09-09T02:35:43;20.70;62.60
20091;DHT22;10205;49.678;6.560;2022-09-09T02:38:13;20.80;62.80
20091;DHT22;10205;49.678;6.560;2022-09-09T02:40:42;20.70;63.60
20091;DHT22;10205;49.678;6.560;2022-09-09T02:43:14;20.70;62.70
20091;DHT22;10205;49.678;6.560;2022-09-09T02:45:48;20.70;62.80
20091;DHT22;10205;49.678;6.560;2022-09-09T02:48:26;20.70;62.80
20091;DHT22;10205;49.678;6.560;2022-09-09T02:51:03;20.70;63.10
20091;DHT22;10205;49.678;6.560;2022-09-09T02:53:41;20.70;63.20
20091;DHT22;10205;49.678;6.560;2022-09-09T02:56:16;20.70;63.20
20091;DHT22;10205;49.678;6.560;2022-09-09T02:58:48;20.70;63.10
20091;DHT22;10205;49.678;6.560;2022-09-09T03:01:17;20.70;63.10
20091;DHT22;10205;49.678;6.560;2022-09-09T03:03:44;20.70;63.00
20091;DHT22;10205;49.678;6.560;2022-09-09T03:06:12;20.70;62.80
20091;DHT22;10205;49.678;6.560;2022-09-09T03:08:40;20.70;62.80
20091;DHT22;10205;49.678;6.560;2022-09-09T03:11:07;20.70;63.00
20091;DHT22;10205;49.678;6.560;2022-09-09T03:13:35;20.70;63.10
20091;DHT22;10205;49.678;6.560;2022-09-09T03:16:05;20.60;62.90
20091;DHT22;10205;49.678;6.560;2022-09-09T03:18:32;20.70;63.80
20091;DHT22;10205;49.678;6.560;2022-09-09T03:21:00;20.70;63.00
20091;DHT22;10205;49.678;6.560;2022-09-09T03:23:29;20.60;62.80
20091;DHT22;10205;49.678;6.560;2022-09-09T03:25:56;20.60;63.00
20091;DHT22;10205;49.678;6.560;2022-09-09T03:28:24;20.60;63.20
20091;DHT22;10205;49.678;6.560;2022-09-09T03:30:58;20.60;63.10
20091;DHT22;10205;49.678;6.560;2022-09-09T03:33:28;20.60;63.10
20091;DHT22;10205;49.678;6.560;2022-09-09T03:35:57;20.60;63.00
20091;DHT22;10205;49.678;6.560;2022-09-09T03:38:24;20.60;63.00
20091;DHT22;10205;49.678;6.560;2022-09-09T03:40:53;20.60;63.00
20091;DHT22;10205;49.678;6.560;2022-09-09T03:43:23;20.60;63.00
20091;DHT22;10205;49.678;6.560;2022-09-09T03:45:51;20.60;63.10
20091;DHT22;10205;49.678;6.560;2022-09-09T03:48:19;20.60;63.00
20091;DHT22;10205;49.678;6.560;2022-09-09T03:50:49;20.60;62.90
20091;DHT22;10205;49.678;6.560;2022-09-09T03:53:19;20.60;63.00
20091;DHT22;10205;49.678;6.560;2022-09-09T03:55:51;20.70;63.00
20091;DHT22;10205;49.678;6.560;2022-09-09T03:58:20;20.60;63.70
20091;DHT22;10205;49.678;6.560;2022-09-09T04:00:53;20.60;62.90
20091;DHT22;10205;49.678;6.560;2022-09-09T04:03:22;20.70;63.00
20091;DHT22;10205;49.678;6.560;2022-09-09T04:05:51;20.70;63.10
20091;DHT22;10205;49.678;6.560;2022-09-09T04:08:19;20.60;63.00
20091;DHT22;10205;49.678;6.560;2022-09-09T04:10:49;20.60;63.00
20091;DHT22;10205;49.678;6.560;2022-09-09T04:13:17;20.60;63.00
20091;DHT22;10205;49.678;6.560;2022-09-09T04:15:50;20.60;62.90
20091;DHT22;10205;49.678;6.560;2022-09-09T04:18:19;20.60;63.20
20091;DHT22;10205;49.678;6.560;2022-09-09T04:20:47;20.60;62.90
20091;DHT22;10205;49.678;6.560;2022-09-09T04:23:17;20.60;62.90
20091;DHT22;10205;49.678;6.560;2022-09-09T04:25:46;20.60;63.00
20091;DHT22;10205;49.678;6.560;2022-09-09T04:28:14;20.60;62.90
20091;DHT22;10205;49.678;6.560;2022-09-09T04:30:43;20.60;62.90
20091;DHT22;10205;49.678;6.560;2022-09-09T04:33:12;20.60;62.90
20091;DHT22;10205;49.678;6.560;2022-09-09T04:35:44;20.60;62.90
20091;DHT22;10205;49.678;6.560;2022-09-09T04:38:13;20.60;63.00
20091;DHT22;10205;49.678;6.560;2022-09-09T04:40:47;20.60;63.00
20091;DHT22;10205;49.678;6.560;2022-09-09T04:43:14;20.60;63.00
20091;DHT22;10205;49.678;6.560;2022-09-09T04:45:42;20.60;62.80
20091;DHT22;10205;49.678;6.560;2022-09-09T04:48:09;20.60;62.80
20091;DHT22;10205;49.678;6.560;2022-09-09T04:50:36;20.60;63.60
20091;DHT22;10205;49.678;6.560;2022-09-09T04:53:05;20.50;62.70
20091;DHT22;10205;49.678;6.560;2022-09-09T04:55:33;20.50;62.80
20091;DHT22;10205;49.678;6.560;2022-09-09T04:58:05;20.50;63.60
20091;DHT22;10205;49.678;6.560;2022-09-09T05:00:33;20.50;62.90
20091;DHT22;10205;49.678;6.560;2022-09-09T05:03:02;20.50;62.90
20091;DHT22;10205;49.678;6.560;2022-09-09T05:05:31;20.50;62.90
20091;DHT22;10205;49.678;6.560;2022-09-09T05:08:04;20.50;62.90
20091;DHT22;10205;49.678;6.560;2022-09-09T05:10:33;20.50;63.00
20091;DHT22;10205;49.678;6.560;2022-09-09T05:13:01;20.50;63.00
20091;DHT22;10205;49.678;6.560;2022-09-09T05:15:29;20.50;62.80
20091;DHT22;10205;49.678;6.560;2022-09-09T05:17:58;20.50;62.80
20091;DHT22;10205;49.678;6.560;2022-09-09T05:20:26;20.40;62.90
20091;DHT22;10205;49.678;6.560;2022-09-09T05:22:53;20.40;62.80
20091;DHT22;10205;49.678;6.560;2022-09-09T05:25:22;20.40;62.70
20091;DHT22;10205;49.678;6.560;2022-09-09T05:27:50;20.40;63.60
20091;DHT22;10205;49.678;6.560;2022-09-09T05:30:17;20.40;62.80
20091;DHT22;10205;49.678;6.560;2022-09-09T05:32:46;20.40;62.70
20091;DHT22;10205;49.678;6.560;2022-09-09T05:35:14;20.40;62.90
20091;DHT22;10205;49.678;6.560;2022-09-09T05:37:41;20.40;62.80
20091;DHT22;10205;49.678;6.560;2022-09-09T05:40:09;20.40;62.90
20091;DHT22;10205;49.678;6.560;2022-09-09T05:42:37;20.40;62.90
20091;DHT22;10205;49.678;6.560;2022-09-09T05:45:06;20.30;63.00
20091;DHT22;10205;49.678;6.560;2022-09-09T05:47:34;20.30;63.00
20091;DHT22;10205;49.678;6.560;2022-09-09T05:50:05;20.40;63.90
20091;DHT22;10205;49.678;6.560;2022-09-09T05:52:33;20.40;63.20
20091;DHT22;10205;49.678;6.560;2022-09-09T05:55:00;20.40;63.10
20091;DHT22;10205;49.678;6.560;2022-09-09T05:57:29;20.30;63.00
20091;DHT22;10205;49.678;6.560;2022-09-09T05:59:59;20.40;63.10
20091;DHT22;10205;49.678;6.560;2022-09-09T06:02:27;20.40;63.30
20091;DHT22;10205;49.678;6.560;2022-09-09T06:04:54;20.40;63.20
20091;DHT22;10205;49.678;6.560;2022-09-09T06:07:25;20.40;63.20
20091;DHT22;10205;49.678;6.560;2022-09-09T06:09:52;20.40;63.30
20091;DHT22;10205;49.678;6.560;2022-09-09T06:12:20;20.30;62.90
20091;DHT22;10205;49.678;6.560;2022-09-09T06:14:47;20.30;63.00
20091;DHT22;10205;49.678;6.560;2022-09-09T06:17:16;20.30;62.90
20091;DHT22;10205;49.678;6.560;2022-09-09T06:19:43;20.40;63.00
20091;DHT22;10205;49.678;6.560;2022-09-09T06:22:11;20.30;62.90
20091;DHT22;10205;49.678;6.560;2022-09-09T06:24:40;20.30;63.00
20091;DHT22;10205;49.678;6.560;2022-09-09T06:27:07;20.30;63.80
20091;DHT22;10205;49.678;6.560;2022-09-09T06:29:34;20.30;62.80
20091;DHT22;10205;49.678;6.560;2022-09-09T06:32:02;20.30;62.80
20091;DHT22;10205;49.678;6.560;2022-09-09T06:34:29;20.40;62.90
20091;DHT22;10205;49.678;6.560;2022-09-09T06:37:00;20.30;62.80
20091;DHT22;10205;49.678;6.560;2022-09-09T06:39:27;20.30;62.80
20091;DHT22;10205;49.678;6.560;2022-09-09T06:41:55;20.30;62.80
20091;DHT22;10205;49.678;6.560;2022-09-09T06:44:24;20.30;62.80
20091;DHT22;10205;49.678;6.560;2022-09-09T06:46:52;20.30;62.80
20091;DHT22;10205;49.678;6.560;2022-09-09T06:49:19;20.40;62.90
20091;DHT22;10205;49.678;6.560;2022-09-09T06:51:46;20.40;62.80
20091;DHT22;10205;49.678;6.560;2022-09-09T06:54:14;20.40;62.90
20091;DHT22;10205;49.678;6.560;2022-09-09T06:56:42;20.40;62.80
20091;DHT22;10205;49.678;6.560;2022-09-09T06:59:12;20.40;62.60
20091;DHT22;10205;49.678;6.560;2022-09-09T07:01:40;20.40;62.70
20091;DHT22;10205;49.678;6.560;2022-09-09T07:04:10;20.40;62.70
20091;DHT22;10205;49.678;6.560;2022-09-09T07:06:39;20.40;62.60
20091;DHT22;10205;49.678;6.560;2022-09-09T07:09:10;20.50;62.60
20091;DHT22;10205;49.678;6.560;2022-09-09T07:11:40;20.50;62.40
20091;DHT22;10205;49.678;6.560;2022-09-09T07:14:09;20.50;62.50
20091;DHT22;10205;49.678;6.560;2022-09-09T07:16:40;20.50;62.10
20091;DHT22;10205;49.678;6.560;2022-09-09T07:19:08;20.50;62.10
20091;DHT22;10205;49.678;6.560;2022-09-09T07:21:35;20.50;61.90
20091;DHT22;10205;49.678;6.560;2022-09-09T07:24:02;20.50;61.90
20091;DHT22;10205;49.678;6.560;2022-09-09T07:26:33;20.50;62.00
20091;DHT22;10205;49.678;6.560;2022-09-09T07:29:01;20.50;61.70
20091;DHT22;10205;49.678;6.560;2022-09-09T07:31:30;20.50;61.70
20091;DHT22;10205;49.678;6.560;2022-09-09T07:34:00;20.50;61.70
20091;DHT22;10205;49.678;6.560;2022-09-09T07:36:29;20.50;61.40
20091;DHT22;10205;49.678;6.560;2022-09-09T07:38:59;20.50;61.40
20091;DHT22;10205;49.678;6.560;2022-09-09T07:41:30;20.50;61.20
20091;DHT22;10205;49.678;6.560;2022-09-09T07:43:59;20.50;61.20
20091;DHT22;10205;49.678;6.560;2022-09-09T07:46:32;20.50;61.10
20091;DHT22;10205;49.678;6.560;2022-09-09T07:49:00;20.60;61.10
20091;DHT22;10205;49.678;6.560;2022-09-09T07:51:30;20.60;60.80
20091;DHT22;10205;49.678;6.560;2022-09-09T07:53:59;20.60;60.50
20091;DHT22;10205;49.678;6.560;2022-09-09T07:56:29;20.60;60.80
20091;DHT22;10205;49.678;6.560;2022-09-09T07:58:58;20.60;60.80
20091;DHT22;10205;49.678;6.560;2022-09-09T08:01:28;20.60;60.70
20091;DHT22;10205;49.678;6.560;2022-09-09T08:04:00;20.60;60.90
20091;DHT22;10205;49.678;6.560;2022-09-09T08:06:31;20.60;60.90
20091;DHT22;10205;49.678;6.560;2022-09-09T08:09:02;20.60;60.50
20091;DHT22;10205;49.678;6.560;2022-09-09T08:11:30;20.60;60.80
20091;DHT22;10205;49.678;6.560;2022-09-09T08:13:58;20.60;60.70
20091;DHT22;10205;49.678;6.560;2022-09-09T08:16:27;20.60;60.70
20091;DHT22;10205;49.678;6.560;2022-09-09T08:18:56;20.60;60.70
20091;DHT22;10205;49.678;6.560;2022-09-09T08:21:27;20.60;60.80
20091;DHT22;10205;49.678;6.560;2022-09-09T08:23:58;20.60;60.70
20091;DHT22;10205;49.678;6.560;2022-09-09T08:26:28;20.70;60.70
20091;DHT22;10205;49.678;6.560;2022-09-09T08:28:58;20.70;60.80
20091;DHT22;10205;49.678;6.560;2022-09-09T08:31:27;20.70;60.90
20091;DHT22;10205;49.678;6.560;2022-09-09T08:33:57;20.70;61.00
20091;DHT22;10205;49.678;6.560;2022-09-09T08:36:29;20.80;61.00
20091;DHT22;10205;49.678;6.560;2022-09-09T08:38:59;20.80;61.70
20091;DHT22;10205;49.678;6.560;2022-09-09T08:41:43;20.80;61.20
20091;DHT22;10205;49.678;6.560;2022-09-09T08:44:29;20.80;61.10
20091;DHT22;10205;49.678;6.560;2022-09-09T08:47:10;20.80;61.30
20091;DHT22;10205;49.678;6.560;2022-09-09T08:50:02;20.80;60.60
20091;DHT22;10205;49.678;6.560;2022-09-09T08:52:50;20.80;60.50
20091;DHT22;10205;49.678;6.560;2022-09-09T08:55:25;20.80;60.10
20091;DHT22;10205;49.678;6.560;2022-09-09T08:58:08;20.90;60.10
20091;DHT22;10205;49.678;6.560;2022-09-09T09:00:50;20.90;60.00
20091;DHT22;10205;49.678;6.560;2022-09-09T09:03:38;20.90;60.40
20091;DHT22;10205;49.678;6.560;2022-09-09T09:06:22;20.90;60.80
20091;DHT22;10205;49.678;6.560;2022-09-09T09:09:02;21.00;60.80
20091;DHT22;10205;49.678;6.560;2022-09-09T09:11:36;21.00;60.90
20091;DHT22;10205;49.678;6.560;2022-09-09T09:14:09;21.10;60.10
20091;DHT22;10205;49.678;6.560;2022-09-09T09:16:50;21.10;60.20
20091;DHT22;10205;49.678;6.560;2022-09-09T09:19:20;21.20;59.80
20091;DHT22;10205;49.678;6.560;2022-09-09T09:21:56;21.30;60.10
20091;DHT22;10205;49.678;6.560;2022-09-09T09:24:34;21.30;60.10
20091;DHT22;10205;49.678;6.560;2022-09-09T09:27:13;21.40;60.10
20091;DHT22;10205;49.678;6.560;2022-09-09T09:29:42;21.50;59.90
20091;DHT22;10205;49.678;6.560;2022-09-09T09:32:14;21.60;60.10
20091;DHT22;10205;49.678;6.560;2022-09-09T09:34:49;21.60;59.60
20091;DHT22;10205;49.678;6.560;2022-09-09T09:37:23;21.70;59.30
20091;DHT22;10205;49.678;6.560;2022-09-09T09:39:56;21.70;58.90
20091;DHT22;10205;49.678;6.560;2022-09-09T09:42:23;21.70;59.20
20091;DHT22;10205;49.678;6.560;2022-09-09T09:44:52;21.70;58.90
20091;DHT22;10205;49.678;6.560;2022-09-09T09:47:20;21.80;58.90
20091;DHT22;10205;49.678;6.560;2022-09-09T09:49:52;21.80;59.70
20091;DHT22;10205;49.678;6.560;2022-09-09T09:52:23;21.80;58.20
20091;DHT22;10205;49.678;6.560;2022-09-09T09:54:57;21.80;58.10
20091;DHT22;10205;49.678;6.560;2022-09-09T09:57:30;21.80;58.10
20091;DHT22;10205;49.678;6.560;2022-09-09T10:00:04;21.90;58.00
20091;DHT22;10205;49.678;6.560;2022-09-09T10:02:40;21.90;58.00
20091;DHT22;10205;49.678;6.560;2022-09-09T10:05:14;21.90;57.40
20091;DHT22;10205;49.678;6.560;2022-09-09T10:07:44;22.00;57.20
20091;DHT22;10205;49.678;6.560;2022-09-09T10:10:17;22.00;57.30
20091;DHT22;10205;49.678;6.560;2022-09-09T10:12:57;22.10;56.70
20091;DHT22;10205;49.678;6.560;2022-09-09T10:15:35;22.10;56.60
20091;DHT22;10205;49.678;6.560;2022-09-09T10:18:25;22.20;56.40
20091;DHT22;10205;49.678;6.560;2022-09-09T10:21:09;22.20;56.10
20091;DHT22;10205;49.678;6.560;2022-09-09T10:24:05;22.20;56.30
20091;DHT22;10205;49.678;6.560;2022-09-09T10:26:51;22.30;56.40
20091;DHT22;10205;49.678;6.560;2022-09-09T10:29:41;22.30;56.60
20091;DHT22;10205;49.678;6.560;2022-09-09T10:32:37;22.30;56.70
20091;DHT22;10205;49.678;6.560;2022-09-09T10:35:25;22.40;56.50
20091;DHT22;10205;49.678;6.560;2022-09-09T10:38:16;22.40;56.30
20091;DHT22;10205;49.678;6.560;2022-09-09T10:41:11;22.50;56.20
20091;DHT22;10205;49.678;6.560;2022-09-09T10:44:11;22.60;55.40
20091;DHT22;10205;49.678;6.560;2022-09-09T10:46:56;22.70;55.50
20091;DHT22;10205;49.678;6.560;2022-09-09T10:49:51;22.70;55.20
20091;DHT22;10205;49.678;6.560;2022-09-09T10:52:38;22.80;54.60
20091;DHT22;10205;49.678;6.560;2022-09-09T10:55:17;22.90;54.40
20091;DHT22;10205;49.678;6.560;2022-09-09T10:57:47;22.90;54.90
20091;DHT22;10205;49.678;6.560;2022-09-09T11:00:19;23.00;54.60
20091;DHT22;10205;49.678;6.560;2022-09-09T11:02:51;23.00;54.20
20091;DHT22;10205;49.678;6.560;2022-09-09T11:05:27;23.10;54.50
20091;DHT22;10205;49.678;6.560;2022-09-09T11:08:01;23.10;54.30
20091;DHT22;10205;49.678;6.560;2022-09-09T11:10:37;23.10;54.20
20091;DHT22;10205;49.678;6.560;2022-09-09T11:13:14;23.20;53.50
20091;DHT22;10205;49.678;6.560;2022-09-09T11:15:50;23.20;53.70
20091;DHT22;10205;49.678;6.560;2022-09-09T11:18:22;23.20;54.70
20091;DHT22;10205;49.678;6.560;2022-09-09T11:20:52;23.30;54.60
20091;DHT22;10205;49.678;6.560;2022-09-09T11:23:26;23.30;54.30
20091;DHT22;10205;49.678;6.560;2022-09-09T11:26:04;23.40;54.00
20091;DHT22;10205;49.678;6.560;2022-09-09T11:28:45;23.40;53.80
20091;DHT22;10205;49.678;6.560;2022-09-09T11:31:38;23.40;53.50
20091;DHT22;10205;49.678;6.560;2022-09-09T11:34:24;23.50;53.60
20091;DHT22;10205;49.678;6.560;2022-09-09T11:37:17;23.50;54.10
20091;DHT22;10205;49.678;6.560;2022-09-09T11:40:19;23.50;54.40
20091;DHT22;10205;49.678;6.560;2022-09-09T11:43:01;23.50;54.00
20091;DHT22;10205;49.678;6.560;2022-09-09T11:45:32;23.50;54.00
20091;DHT22;10205;49.678;6.560;2022-09-09T11:48:03;23.50;54.00
20091;DHT22;10205;49.678;6.560;2022-09-09T11:50:34;23.50;53.90
20091;DHT22;10205;49.678;6.560;2022-09-09T11:53:06;23.40;54.00
20091;DHT22;10205;49.678;6.560;2022-09-09T11:55:48;23.50;54.50
20091;DHT22;10205;49.678;6.560;2022-09-09T11:58:36;23.40;54.70
20091;DHT22;10205;49.678;6.560;2022-09-09T12:01:30;23.40;54.90
20091;DHT22;10205;49.678;6.560;2022-09-09T12:04:29;23.40;54.90
20091;DHT22;10205;49.678;6.560;2022-09-09T12:07:03;23.50;55.50
20091;DHT22;10205;49.678;6.560;2022-09-09T12:09:46;23.50;55.10
20091;DHT22;10205;49.678;6.560;2022-09-09T12:12:28;23.50;54.60
20091;DHT22;10205;49.678;6.560;2022-09-09T12:15:16;23.60;54.70
20091;DHT22;10205;49.678;6.560;2022-09-09T12:17:48;23.60;54.90
20091;DHT22;10205;49.678;6.560;2022-09-09T12:20:20;23.70;55.00
20091;DHT22;10205;49.678;6.560;2022-09-09T12:23:15;23.70;54.90
20091;DHT22;10205;49.678;6.560;2022-09-09T12:26:05;23.70;54.50
20091;DHT22;10205;49.678;6.560;2022-09-09T12:28:50;23.80;54.30
20091;DHT22;10205;49.678;6.560;2022-09-09T12:31:25;23.80;54.60
20091;DHT22;10205;49.678;6.560;2022-09-09T12:34:09;23.90;54.20
20091;DHT22;10205;49.678;6.560;2022-09-09T12:36:46;23.90;54.00
20091;DHT22;10205;49.678;6.560;2022-09-09T12:39:24;23.90;54.30
20091;DHT22;10205;49.678;6.560;2022-09-09T12:41:57;24.00;54.20
20091;DHT22;10205;49.678;6.560;2022-09-09T12:44:25;24.10;54.30
20091;DHT22;10205;49.678;6.560;2022-09-09T12:47:00;24.10;54.10
20091;DHT22;10205;49.678;6.560;2022-09-09T12:49:32;24.20;54.10
20091;DHT22;10205;49.678;6.560;2022-09-09T12:52:07;24.20;54.00
20091;DHT22;10205;49.678;6.560;2022-09-09T12:54:44;24.20;53.70
20091;DHT22;10205;49.678;6.560;2022-09-09T12:57:26;24.40;53.40
20091;DHT22;10205;49.678;6.560;2022-09-09T13:00:11;24.40;53.70
20091;DHT22;10205;49.678;6.560;2022-09-09T13:02:49;24.40;53.00
20091;DHT22;10205;49.678;6.560;2022-09-09T13:05:21;24.50;52.40
20091;DHT22;10205;49.678;6.560;2022-09-09T13:07:51;24.50;52.30
20091;DHT22;10205;49.678;6.560;2022-09-09T13:10:26;24.60;51.90
20091;DHT22;10205;49.678;6.560;2022-09-09T13:12:56;24.60;51.50
20091;DHT22;10205;49.678;6.560;2022-09-09T13:15:26;24.70;51.20
20091;DHT22;10205;49.678;6.560;2022-09-09T13:17:57;24.70;51.50
20091;DHT22;10205;49.678;6.560;2022-09-09T13:20:28;24.70;50.30
20091;DHT22;10205;49.678;6.560;2022-09-09T13:22:58;24.80;50.60
20091;DHT22;10205;49.678;6.560;2022-09-09T13:25:26;24.80;50.70
20091;DHT22;10205;49.678;6.560;2022-09-09T13:27:59;24.90;50.30
20091;DHT22;10205;49.678;6.560;2022-09-09T13:30:29;24.90;50.00
20091;DHT22;10205;49.678;6.560;2022-09-09T13:33:18;25.00;50.20
20091;DHT22;10205;49.678;6.560;2022-09-09T13:35:51;25.00;50.00
20091;DHT22;10205;49.678;6.560;2022-09-09T13:38:22;25.00;50.10
20091;DHT22;10205;49.678;6.560;2022-09-09T13:40:57;25.10;49.50
20091;DHT22;10205;49.678;6.560;2022-09-09T13:43:28;25.10;49.10
20091;DHT22;10205;49.678;6.560;2022-09-09T13:46:00;25.10;48.80
20091;DHT22;10205;49.678;6.560;2022-09-09T13:48:28;25.10;49.10
20091;DHT22;10205;49.678;6.560;2022-09-09T13:50:59;25.10;48.70
20091;DHT22;10205;49.678;6.560;2022-09-09T13:53:30;25.10;48.70
20091;DHT22;10205;49.678;6.560;2022-09-09T13:55:58;25.00;48.30
20091;DHT22;10205;49.678;6.560;2022-09-09T13:58:26;25.00;48.90
20091;DHT22;10205;49.678;6.560;2022-09-09T14:00:54;25.00;50.10
20091;DHT22;10205;49.678;6.560;2022-09-09T14:03:22;24.90;50.40
20091;DHT22;10205;49.678;6.560;2022-09-09T14:05:50;24.90;50.20
20091;DHT22;10205;49.678;6.560;2022-09-09T14:08:24;24.80;50.50
20091;DHT22;10205;49.678;6.560;2022-09-09T14:10:55;24.70;51.00
20091;DHT22;10205;49.678;6.560;2022-09-09T14:13:24;24.60;50.90
20091;DHT22;10205;49.678;6.560;2022-09-09T14:15:52;24.60;51.70
20091;DHT22;10205;49.678;6.560;2022-09-09T14:18:20;24.40;51.50
20091;DHT22;10205;49.678;6.560;2022-09-09T14:20:48;24.40;52.00
20091;DHT22;10205;49.678;6.560;2022-09-09T14:23:16;24.30;52.90
20091;DHT22;10205;49.678;6.560;2022-09-09T14:25:44;24.30;52.60
20091;DHT22;10205;49.678;6.560;2022-09-09T14:28:14;24.20;52.70
20091;DHT22;10205;49.678;6.560;2022-09-09T14:30:42;24.20;53.00
20091;DHT22;10205;49.678;6.560;2022-09-09T14:33:14;24.20;53.20
20091;DHT22;10205;49.678;6.560;2022-09-09T14:35:43;24.20;53.10
20091;DHT22;10205;49.678;6.560;2022-09-09T14:38:10;24.10;53.50
20091;DHT22;10205;49.678;6.560;2022-09-09T14:40:38;24.10;53.60
20091;DHT22;10205;49.678;6.560;2022-09-09T14:43:05;24.10;53.60
20091;DHT22;10205;49.678;6.560;2022-09-09T14:45:35;24.10;53.60
20091;DHT22;10205;49.678;6.560;2022-09-09T14:48:04;24.00;53.60
20091;DHT22;10205;49.678;6.560;2022-09-09T14:50:31;24.00;53.80
20091;DHT22;10205;49.678;6.560;2022-09-09T14:53:00;24.00;53.90
20091;DHT22;10205;49.678;6.560;2022-09-09T14:55:27;24.00;53.90
20091;DHT22;10205;49.678;6.560;2022-09-09T14:57:54;24.00;54.20
20091;DHT22;10205;49.678;6.560;2022-09-09T15:00:22;24.00;54.10
20091;DHT22;10205;49.678;6.560;2022-09-09T15:02:53;24.00;54.20
20091;DHT22;10205;49.678;6.560;2022-09-09T15:05:21;24.00;54.30
20091;DHT22;10205;49.678;6.560;2022-09-09T15:07:49;24.10;54.30
20091;DHT22;10205;49.678;6.560;2022-09-09T15:10:17;24.10;54.20
20091;DHT22;10205;49.678;6.560;2022-09-09T15:12:44;24.10;54.20
20091;DHT22;10205;49.678;6.560;2022-09-09T15:15:11;24.10;54.40
20091;DHT22;10205;49.678;6.560;2022-09-09T15:17:39;24.10;54.40
20091;DHT22;10205;49.678;6.560;2022-09-09T15:20:09;24.10;54.40
20091;DHT22;10205;49.678;6.560;2022-09-09T15:22:36;24.10;54.30
20091;DHT22;10205;49.678;6.560;2022-09-09T15:25:04;24.10;54.40
20091;DHT22;10205;49.678;6.560;2022-09-09T15:27:33;24.10;54.70
20091;DHT22;10205;49.678;6.560;2022-09-09T15:30:00;24.10;54.30
20091;DHT22;10205;49.678;6.560;2022-09-09T15:32:28;24.10;54.30
20091;DHT22;10205;49.678;6.560;2022-09-09T15:34:55;24.10;54.40
20091;DHT22;10205;49.678;6.560;2022-09-09T15:37:24;24.10;54.40
20091;DHT22;10205;49.678;6.560;2022-09-09T15:39:51;24.10;54.40
20091;DHT22;10205;49.678;6.560;2022-09-09T15:42:19;24.10;54.40
20091;DHT22;10205;49.678;6.560;2022-09-09T15:44:46;24.10;54.40
20091;DHT22;10205;49.678;6.560;2022-09-09T15:47:13;24.10;54.50
20091;DHT22;10205;49.678;6.560;2022-09-09T15:49:40;24.10;54.70
20091;DHT22;10205;49.678;6.560;2022-09-09T15:52:10;24.10;54.70
20091;DHT22;10205;49.678;6.560;2022-09-09T15:54:40;24.10;54.90
20091;DHT22;10205;49.678;6.560;2022-09-09T15:57:12;24.10;54.60
20091;DHT22;10205;49.678;6.560;2022-09-09T15:59:40;24.20;54.90
20091;DHT22;10205;49.678;6.560;2022-09-09T16:02:09;24.20;55.90
20091;DHT22;10205;49.678;6.560;2022-09-09T16:04:36;24.10;55.40
20091;DHT22;10205;49.678;6.560;2022-09-09T16:07:04;24.10;57.30
20091;DHT22;10205;49.678;6.560;2022-09-09T16:09:33;24.00;56.70